Budapest

METAR
SPECI

METAR LHBP 011700Z 33005KT CAVOK 29/17 Q1016 NOSIG=

METAR LHBP 011630Z 33007KT CAVOK 30/17 Q1016 NOSIG=

METAR LHBP 011600Z 34008KT CAVOK 29/17 Q1016 NOSIG=

METAR LHBP 011530Z 30008KT 260V350 CAVOK 29/17 Q1016 NOSIG=

METAR LHBP 011500Z 34010KT 9999 FEW054CB SCT061 BKN200 30/16 Q1016 NOSIG=

METAR LHBP 011430Z 33009KT 9999 FEW053CB SCT068 BKN200 30/17 Q1016 NOSIG=

METAR LHBP 011400Z 22007KT 190V260 9999 FEW053CB SCT066 BKN200 31/15 Q1016 NOSIG=


TAF

TAF LHBP 011100Z 0112/0212 VRB03KT CAVOK TEMPO 0112/0119 VRB15G27KT 6000 TSRA FEW010 SCT050CB BKN200=

METARRepülőterek meteorológiai tényadatai félóránkéntSAHU31
SAHU41
SPECIKülönleges időjárás-jelentő táviratSPHU31
SPHU85
TAFRepülőterek legfrissebb meteorológiai előrejelzéseFTHU31
FCHU41

GAMET

289
FAHU41 LHBM 011100
LHCC GAMET VALID 011200/011800 LHBP-
LHCC BUDAPEST FIR BLW FL100

SECN I
SIGWX: ISOL TS NW OF LINE N4557 E01902 - N4705 E01928 - N4751
E02246
SIG CLD: ISOL TCU CB 3500-5500/XXX FT AGL W OF E01900
ISOL TCU CB 5000-6500/XXX FT AGL E OF E01900

SIGMETS APPLICABLE: NIL=

GAMETTerületi előrejelzés, FL100 (~3000 m) alatti veszélyes időjárási jelenségekrőlFAHU41
OMSZ: 2016. július 1. 13:02 (11:02  UTC)  [FAHU41]
AIRMET

Nincs érvényes távirat 

WAHU41 LHBM 091615
LHCC AIRMET 03 VALID 091615/091730 LHBP-
LHCC BUDAPEST FIR ISOL TS OBS N4627 E01658 TOP FL300 STNR
WKN=
OMSZ:  [WAHU41]
AIRMETRiasztás a kisgépes repülés számára veszélyes időjárási jelenség miatt (talajszint és FL100 közötti légtérre)WAHU41
SIGMET
WSHU31 LHBM 011700
LHCC SIGMET 01 VALID 011700/011830 LHBP-
LHCC BUDAPEST FIR FRQ TS OBS N OF LINE N4831 E02130 - N4750
E01953 - N4812 E01934 TOP FL390 MOV ENE WKN=
OMSZ: 2016. július 1. 19:06 (17:06  UTC)  [WSHU31]
SIGMETRiasztás, a repülésre különösen veszélyes időjárási jelenség miatt (talajszint és FL450 közötti légtérre)WSHU31
SIGMET
Vulkáni
hamufelhő

Nincs érvényes távirat 

WVHU31 LHBM 271515 CCA
LHCC SIGMET 03 VALID 271515/271800 LHBP-
LHCC BUDAPEST FIR EXERCISE VOLCEX12/01
CNL VA SIGMET 02 271200/271800
EXERCISE EXERCISE EXERCISE VOLCEX12/01=
OMSZ:  [WVHU31]
SIGMET
Vulkáni
hamufelhő
Riasztás, a repülésre különösen veszélyes vulkáni tevékenység miattWVHU31